createdAt,value
2022-08-27T00:01:57.663Z,14.88
2022-08-27T00:04:26.863Z,16.00
2022-08-27T00:06:55.128Z,15.38
2022-08-27T00:09:27.025Z,14.45
2022-08-27T00:11:55.548Z,18.15
2022-08-27T00:14:24.034Z,14.45
2022-08-27T00:16:53.812Z,16.77
2022-08-27T00:19:22.572Z,15.02
2022-08-27T00:21:51.012Z,13.98
2022-08-27T00:24:19.307Z,14.05
2022-08-27T00:26:47.386Z,12.63
2022-08-27T00:29:15.564Z,12.88
2022-08-27T00:31:43.732Z,16.95
2022-08-27T00:34:13.351Z,16.30
2022-08-27T00:36:42.228Z,14.38
2022-08-27T00:39:10.303Z,16.92
2022-08-27T00:41:39.268Z,14.02
2022-08-27T00:44:07.943Z,15.55
2022-08-27T00:46:38.913Z,18.33
2022-08-27T00:49:10.917Z,13.48
2022-08-27T00:51:41.431Z,11.48
2022-08-27T00:54:10.591Z,14.48
2022-08-27T00:56:45.518Z,12.85
2022-08-27T00:59:22.099Z,12.15
2022-08-27T01:02:07.668Z,13.50
2022-08-27T01:04:39.192Z,15.02
2022-08-27T01:07:09.536Z,15.02
2022-08-27T01:09:39.028Z,14.27
2022-08-27T01:12:07.430Z,13.18
2022-08-27T01:14:35.540Z,17.58
2022-08-27T01:17:05.206Z,12.43
2022-08-27T01:19:37.996Z,14.98
2022-08-27T01:22:21.777Z,15.80
2022-08-27T01:24:55.741Z,15.70
2022-08-27T01:27:27.071Z,15.65
2022-08-27T01:29:55.400Z,13.05
2022-08-27T01:32:25.839Z,13.43
2022-08-27T01:34:55.448Z,13.98
2022-08-27T01:37:25.351Z,15.68
2022-08-27T01:39:59.164Z,14.90
2022-08-27T01:42:34.525Z,14.63
2022-08-27T01:45:07.232Z,16.88
2022-08-27T01:47:36.596Z,13.90
2022-08-27T01:50:08.724Z,17.02
2022-08-27T01:52:36.941Z,14.15
2022-08-27T01:55:08.441Z,15.73
2022-08-27T01:57:37.392Z,15.80
2022-08-27T02:00:08.104Z,16.45
2022-08-27T02:02:40.388Z,16.58
2022-08-27T02:05:10.400Z,18.52
2022-08-27T02:07:38.727Z,15.23
2022-08-27T02:10:10.320Z,16.95
2022-08-27T02:12:38.422Z,16.02
2022-08-27T02:15:07.503Z,18.08
2022-08-27T02:17:35.717Z,15.23
2022-08-27T02:20:04.890Z,23.00
2022-08-27T02:22:33.236Z,18.55
2022-08-27T02:25:02.084Z,16.73
2022-08-27T02:27:31.480Z,15.13
2022-08-27T02:29:59.594Z,15.35
2022-08-27T02:32:32.461Z,15.60
2022-08-27T02:35:01.191Z,21.15
2022-08-27T02:37:30.090Z,17.92
2022-08-27T02:39:58.475Z,19.95
2022-08-27T02:42:26.588Z,25.98
2022-08-27T02:44:56.036Z,18.40
2022-08-27T02:47:24.382Z,20.70
2022-08-27T02:49:52.732Z,22.80
2022-08-27T02:52:25.007Z,19.60
2022-08-27T02:54:53.909Z,22.15
2022-08-27T02:57:22.685Z,25.52
2022-08-27T02:59:50.904Z,24.05
2022-08-27T03:02:21.466Z,23.77
2022-08-27T03:04:50.542Z,22.00
2022-08-27T03:07:19.579Z,22.00
2022-08-27T03:09:47.775Z,21.48
2022-08-27T03:12:15.962Z,21.42
2022-08-27T03:14:44.566Z,20.00
2022-08-27T03:17:30.466Z,18.65
2022-08-27T03:20:01.576Z,22.10
2022-08-27T03:22:29.699Z,20.80
2022-08-27T03:24:57.924Z,19.92
2022-08-27T03:27:26.005Z,21.02
2022-08-27T03:29:54.183Z,16.30
2022-08-27T03:32:22.370Z,19.38
2022-08-27T03:34:50.452Z,16.40
2022-08-27T03:37:19.888Z,18.73
2022-08-27T03:39:47.958Z,19.17
2022-08-27T03:42:16.083Z,15.10
2022-08-27T03:44:44.922Z,15.70
2022-08-27T03:47:13.050Z,17.75
2022-08-27T03:49:41.166Z,14.43
2022-08-27T03:52:09.964Z,16.10
2022-08-27T03:54:39.592Z,14.95
2022-08-27T03:57:08.197Z,12.18
2022-08-27T03:59:36.292Z,12.35
2022-08-27T04:02:05.015Z,15.45
2022-08-27T04:04:33.178Z,11.73
2022-08-27T04:07:01.648Z,14.48
2022-08-27T04:09:29.839Z,10.88
2022-08-27T04:11:59.291Z,10.25
2022-08-27T04:14:27.768Z,10.55
2022-08-27T04:16:56.864Z,10.65
2022-08-27T04:19:27.932Z,10.55
2022-08-27T04:22:02.032Z,10.90
2022-08-27T04:24:31.897Z,9.70
2022-08-27T04:27:02.272Z,10.75
2022-08-27T04:29:30.368Z,8.85
2022-08-27T04:31:59.175Z,7.82
2022-08-27T04:34:27.540Z,8.75
2022-08-27T04:36:57.727Z,7.60
2022-08-27T04:39:27.027Z,8.57
2022-08-27T04:41:57.252Z,6.70
2022-08-27T04:44:28.633Z,7.75
2022-08-27T04:46:58.667Z,7.68
2022-08-27T04:49:27.803Z,5.88
2022-08-27T04:51:56.504Z,6.70
2022-08-27T04:54:32.356Z,6.15
2022-08-27T04:57:01.639Z,7.38
2022-08-27T04:59:31.557Z,9.80
2022-08-27T05:01:59.792Z,6.50
2022-08-27T05:04:29.130Z,7.57
2022-08-27T05:06:57.356Z,7.35
2022-08-27T05:09:26.803Z,5.65
2022-08-27T05:11:55.466Z,5.65
2022-08-27T05:14:25.337Z,6.10
2022-08-27T05:16:54.748Z,4.80
2022-08-27T05:19:22.810Z,6.53
2022-08-27T05:21:53.667Z,5.38
2022-08-27T05:24:22.400Z,4.93
2022-08-27T05:26:50.954Z,5.10
2022-08-27T05:29:19.342Z,5.32
2022-08-27T05:31:48.343Z,6.43
2022-08-27T05:34:22.031Z,6.68
2022-08-27T05:36:54.515Z,4.78
2022-08-27T05:39:22.904Z,4.80
2022-08-27T05:41:52.470Z,4.80
2022-08-27T05:47:08.898Z,5.53
2022-08-27T05:49:38.752Z,5.10
2022-08-27T05:52:10.596Z,6.28
2022-08-27T05:54:39.693Z,5.03
2022-08-27T05:57:07.799Z,4.72
2022-08-27T05:59:53.918Z,3.78
2022-08-27T06:02:22.476Z,6.38
2022-08-27T06:04:52.039Z,4.40
2022-08-27T06:07:20.339Z,6.53
2022-08-27T06:09:49.576Z,4.97
2022-08-27T06:12:33.421Z,4.05
2022-08-27T06:15:27.110Z,4.25
2022-08-27T06:18:09.890Z,4.57
2022-08-27T06:20:43.424Z,3.72
2022-08-27T06:23:11.584Z,4.38
2022-08-27T06:25:42.438Z,4.15
2022-08-27T06:28:10.717Z,3.35
2022-08-27T06:30:38.886Z,6.32
2022-08-27T06:33:07.100Z,4.03
2022-08-27T06:35:35.946Z,3.60
2022-08-27T06:38:05.334Z,4.32
2022-08-27T06:40:33.771Z,3.90
2022-08-27T06:43:02.429Z,3.47
2022-08-27T06:45:30.502Z,4.28
2022-08-27T06:47:58.613Z,4.78
2022-08-27T06:50:27.508Z,4.85
2022-08-27T06:52:55.610Z,4.18
2022-08-27T06:55:25.008Z,3.42
2022-08-27T06:57:53.222Z,4.20
2022-08-27T07:00:21.329Z,4.40
2022-08-27T07:02:49.524Z,3.22
2022-08-27T07:05:19.026Z,3.80
2022-08-27T07:07:48.939Z,3.80
2022-08-27T07:10:17.424Z,4.38
2022-08-27T07:12:46.812Z,4.07
2022-08-27T07:15:14.891Z,4.07
2022-08-27T07:17:44.670Z,3.60
2022-08-27T07:20:13.440Z,4.60
2022-08-27T07:22:41.958Z,4.43
2022-08-27T07:25:12.627Z,3.70
2022-08-27T07:27:41.131Z,6.45
2022-08-27T07:30:13.615Z,3.55
2022-08-27T07:32:41.783Z,4.20
2022-08-27T07:35:10.039Z,4.07
2022-08-27T07:37:38.993Z,5.43
2022-08-27T07:40:09.350Z,4.43
2022-08-27T07:42:57.689Z,5.22
2022-08-27T07:45:29.606Z,4.60
2022-08-27T07:47:57.854Z,5.18
2022-08-27T07:50:26.393Z,4.72
2022-08-27T07:52:54.452Z,4.35
2022-08-27T07:55:22.487Z,3.65
2022-08-27T07:57:50.537Z,5.13
2022-08-27T08:00:19.917Z,5.55
2022-08-27T08:02:49.480Z,3.70
2022-08-27T08:05:17.618Z,4.40
2022-08-27T08:07:45.677Z,4.60
2022-08-27T08:10:14.021Z,3.90
2022-08-27T08:12:42.436Z,3.78
2022-08-27T08:15:13.061Z,4.13
2022-08-27T08:17:41.261Z,6.38
2022-08-27T08:20:27.413Z,4.60
2022-08-27T08:23:00.468Z,3.90
2022-08-27T08:25:29.213Z,3.85
2022-08-27T08:28:03.804Z,3.60
2022-08-27T08:30:31.959Z,4.20
2022-08-27T08:33:03.954Z,4.57
2022-08-27T08:35:35.101Z,5.85
2022-08-27T08:38:09.661Z,3.78
2022-08-27T08:40:42.180Z,6.65
2022-08-27T08:43:20.075Z,4.50
2022-08-27T08:45:49.148Z,4.18
2022-08-27T08:48:21.938Z,4.20
2022-08-27T08:50:59.562Z,4.50
2022-08-27T08:53:39.012Z,3.53
2022-08-27T08:56:11.884Z,3.63
2022-08-27T08:58:46.979Z,3.00
2022-08-27T09:01:20.660Z,4.13
2022-08-27T09:03:54.764Z,3.67
2022-08-27T09:06:37.045Z,3.17
2022-08-27T09:09:22.305Z,3.15
2022-08-27T09:11:59.173Z,3.40
2022-08-27T09:14:35.171Z,2.38
2022-08-27T09:17:10.817Z,3.30
2022-08-27T09:19:39.852Z,2.72
2022-08-27T09:22:20.936Z,2.58
2022-08-27T09:24:58.044Z,3.30
2022-08-27T09:27:26.749Z,2.30
2022-08-27T09:29:57.342Z,2.50
2022-08-27T09:32:28.108Z,2.53
2022-08-27T09:34:59.853Z,1.73
2022-08-27T09:37:34.107Z,2.08
2022-08-27T09:40:13.631Z,2.67
2022-08-27T09:42:53.239Z,1.70
2022-08-27T09:45:23.678Z,2.20
2022-08-27T09:47:54.878Z,1.73
2022-08-27T09:50:24.876Z,1.50
2022-08-27T09:52:56.850Z,2.13
2022-08-27T09:55:45.060Z,1.70
2022-08-27T09:58:20.004Z,1.80
2022-08-27T10:00:49.340Z,1.58
2022-08-27T10:03:24.765Z,1.55
2022-08-27T10:05:54.402Z,1.50
2022-08-27T10:08:29.224Z,2.00
2022-08-27T10:11:00.832Z,1.52
2022-08-27T10:13:34.568Z,1.95
2022-08-27T10:16:42.652Z,2.22
2022-08-27T10:19:23.312Z,1.80
2022-08-27T10:21:59.174Z,1.63
2022-08-27T10:24:38.194Z,1.52
2022-08-27T10:27:16.892Z,2.42
2022-08-27T10:29:53.568Z,1.65
2022-08-27T10:32:35.909Z,1.65
2022-08-27T10:35:10.463Z,1.73
2022-08-27T10:37:46.242Z,1.52
2022-08-27T10:40:22.925Z,1.30
2022-08-27T10:43:00.517Z,1.95
2022-08-27T10:45:42.614Z,1.33
2022-08-27T10:48:24.358Z,1.30
2022-08-27T10:50:57.947Z,1.63
2022-08-27T10:53:36.614Z,3.40
2022-08-27T10:56:15.383Z,2.00
2022-08-27T10:58:56.928Z,2.50
2022-08-27T11:01:37.149Z,2.42
2022-08-27T11:04:11.066Z,2.08
2022-08-27T11:06:43.925Z,2.28
2022-08-27T11:09:16.606Z,2.13
2022-08-27T11:12:13.335Z,1.63
2022-08-27T11:14:46.468Z,1.95
2022-08-27T11:17:19.557Z,1.77
2022-08-27T11:19:55.567Z,2.53
2022-08-27T11:22:30.701Z,1.58
2022-08-27T11:25:06.236Z,2.55
2022-08-27T11:27:36.974Z,2.03
2022-08-27T11:30:09.448Z,2.33
2022-08-27T11:32:49.218Z,2.03
2022-08-27T11:35:22.579Z,2.20
2022-08-27T11:38:29.525Z,1.95
2022-08-27T11:41:09.547Z,2.22
2022-08-27T11:43:39.723Z,2.28
2022-08-27T11:46:09.700Z,2.67
2022-08-27T11:48:41.415Z,2.30
2022-08-27T11:51:14.370Z,3.65
2022-08-27T11:53:56.563Z,1.85
2022-08-27T11:56:39.272Z,2.55
2022-08-27T11:59:21.592Z,2.10
2022-08-27T12:01:51.553Z,2.03
2022-08-27T12:04:34.415Z,2.47
2022-08-27T12:07:05.704Z,2.30
2022-08-27T12:09:55.713Z,3.13
2022-08-27T12:12:34.802Z,1.90
2022-08-27T12:15:09.574Z,2.00
2022-08-27T12:17:45.031Z,1.98
2022-08-27T12:20:24.977Z,2.33
2022-08-27T12:23:32.872Z,4.63
2022-08-27T12:26:03.437Z,2.22
2022-08-27T12:28:31.710Z,3.55
2022-08-27T12:31:01.317Z,2.53
2022-08-27T12:33:34.386Z,2.72
2022-08-27T12:36:11.030Z,2.10
2022-08-27T12:38:47.384Z,3.38
2022-08-27T12:41:26.894Z,2.83
2022-08-27T12:44:05.408Z,2.75
2022-08-27T12:46:44.482Z,2.75
2022-08-27T12:49:38.241Z,3.00
2022-08-27T12:52:04.260Z,3.17
2022-08-27T12:54:44.274Z,3.47
2022-08-27T12:57:20.146Z,3.88
2022-08-27T13:00:00.714Z,4.63
2022-08-27T13:02:53.895Z,3.40
2022-08-27T13:05:23.753Z,3.97
2022-08-27T13:07:53.762Z,4.13
2022-08-27T13:10:25.390Z,4.53
2022-08-27T13:13:04.990Z,4.65
2022-08-27T13:15:35.129Z,3.65
2022-08-27T13:18:07.416Z,4.38
2022-08-27T13:20:38.914Z,3.45
2022-08-27T13:23:17.267Z,3.88
2022-08-27T13:25:56.209Z,3.88
2022-08-27T13:28:28.850Z,4.35
2022-08-27T13:30:57.773Z,5.22
2022-08-27T13:33:29.292Z,4.38
2022-08-27T13:35:58.315Z,5.55
2022-08-27T13:38:29.205Z,5.00
2022-08-27T13:41:00.471Z,3.42
2022-08-27T13:43:36.308Z,6.70
2022-08-27T13:46:09.585Z,3.92
2022-08-27T13:48:41.739Z,6.20
2022-08-27T13:51:10.490Z,5.20
2022-08-27T13:54:01.857Z,4.57
2022-08-27T13:56:32.554Z,5.13
2022-08-27T13:59:13.501Z,4.72
2022-08-27T14:01:54.737Z,5.60
2022-08-27T14:04:29.000Z,5.30
2022-08-27T14:06:57.064Z,6.50
2022-08-27T14:09:27.755Z,4.00
2022-08-27T14:12:02.018Z,2.92
2022-08-27T14:14:31.478Z,3.75
2022-08-27T14:17:00.689Z,6.13
2022-08-27T14:19:36.324Z,4.88
2022-08-27T14:22:06.082Z,3.53
2022-08-27T14:24:34.529Z,4.70
2022-08-27T14:27:08.802Z,4.53
2022-08-27T14:29:37.612Z,9.40
2022-08-27T14:32:07.327Z,3.67
2022-08-27T14:34:37.266Z,5.43
2022-08-27T14:37:06.098Z,2.63
2022-08-27T14:39:34.702Z,4.60
2022-08-27T14:42:03.666Z,7.65
2022-08-27T14:44:33.638Z,5.03
2022-08-27T14:47:04.513Z,4.88
2022-08-27T14:49:41.655Z,5.47
2022-08-27T14:52:11.774Z,4.95
2022-08-27T14:54:40.504Z,4.15
2022-08-27T14:57:09.960Z,6.70
2022-08-27T14:59:38.562Z,6.53
2022-08-27T15:02:09.681Z,7.28
2022-08-27T15:04:39.577Z,3.13
2022-08-27T15:07:10.359Z,8.73
2022-08-27T15:09:38.473Z,4.70
2022-08-27T15:12:06.816Z,5.53
2022-08-27T15:14:44.357Z,3.83
2022-08-27T15:17:34.000Z,8.57
2022-08-27T15:20:04.413Z,3.88
2022-08-27T15:22:34.727Z,7.13
2022-08-27T15:25:05.117Z,5.18
2022-08-27T15:27:37.937Z,3.67
2022-08-27T15:30:08.759Z,5.50
2022-08-27T15:32:47.454Z,5.20
2022-08-27T15:35:19.640Z,3.90
2022-08-27T15:37:48.411Z,5.30
2022-08-27T15:40:19.388Z,5.88
2022-08-27T15:42:51.336Z,4.75
2022-08-27T15:45:19.448Z,2.92
2022-08-27T15:47:49.977Z,6.95
2022-08-27T15:50:22.219Z,4.05
2022-08-27T15:52:53.485Z,6.13
2022-08-27T15:55:24.373Z,5.57
2022-08-27T15:57:52.494Z,4.25
2022-08-27T16:00:21.786Z,4.15
2022-08-27T16:02:50.996Z,5.18
2022-08-27T16:05:21.879Z,3.63
2022-08-27T16:07:50.496Z,3.28
2022-08-27T16:10:19.008Z,3.65
2022-08-27T16:12:47.163Z,5.18
2022-08-27T16:15:17.260Z,6.63
2022-08-27T16:17:46.046Z,8.80
2022-08-27T16:20:16.686Z,4.10
2022-08-27T16:22:46.704Z,5.00
2022-08-27T16:25:18.446Z,7.88
2022-08-27T16:27:48.792Z,6.88
2022-08-27T16:30:17.752Z,3.85
2022-08-27T16:32:48.122Z,3.63
2022-08-27T16:35:17.128Z,6.07
2022-08-27T16:37:46.776Z,6.07
2022-08-27T16:40:16.022Z,4.13
2022-08-27T16:42:46.817Z,4.38
2022-08-27T16:45:16.536Z,4.60
2022-08-27T16:48:02.185Z,4.18
2022-08-27T16:50:36.272Z,4.65
2022-08-27T16:53:08.949Z,8.45
2022-08-27T16:55:38.087Z,3.65
2022-08-27T16:58:09.580Z,4.60
2022-08-27T17:00:39.269Z,5.50
2022-08-27T17:03:09.217Z,7.30
2022-08-27T17:05:37.497Z,8.13
2022-08-27T17:08:11.777Z,6.20
2022-08-27T17:10:45.688Z,7.30
2022-08-27T17:13:15.566Z,6.18
2022-08-27T17:15:44.162Z,7.43
2022-08-27T17:18:12.924Z,3.95
2022-08-27T17:20:42.022Z,7.32
2022-08-27T17:23:17.522Z,5.75
2022-08-27T17:25:45.662Z,8.55
2022-08-27T17:28:13.983Z,4.15
2022-08-27T17:30:42.482Z,6.13
2022-08-27T17:33:17.498Z,4.82
2022-08-27T17:35:45.569Z,10.80
2022-08-27T17:38:14.982Z,5.75
2022-08-27T17:40:43.162Z,4.75
2022-08-27T17:43:11.484Z,8.88
2022-08-27T17:45:41.483Z,5.00
2022-08-27T17:48:12.435Z,5.95
2022-08-27T17:50:43.282Z,3.25
2022-08-27T17:53:11.366Z,8.25
2022-08-27T17:55:40.842Z,4.35
2022-08-27T17:58:08.969Z,6.82
2022-08-27T18:00:37.282Z,8.95
2022-08-27T18:03:05.426Z,6.00
2022-08-27T18:05:33.486Z,7.05
2022-08-27T18:08:01.859Z,5.18
2022-08-27T18:10:30.110Z,4.45
2022-08-27T18:13:00.279Z,6.57
2022-08-27T18:15:30.304Z,5.30
2022-08-27T18:17:58.904Z,7.22
2022-08-27T18:20:30.734Z,6.43
2022-08-27T18:22:59.941Z,4.25
2022-08-27T18:25:35.822Z,4.65
2022-08-27T18:28:07.831Z,4.75
2022-08-27T18:30:36.116Z,5.13
2022-08-27T18:33:04.189Z,4.72
2022-08-27T18:35:34.184Z,3.65
2022-08-27T18:38:02.412Z,3.35
2022-08-27T18:40:36.737Z,3.65
2022-08-27T18:43:07.095Z,4.00
2022-08-27T18:45:37.517Z,9.07
2022-08-27T18:48:12.562Z,5.32
2022-08-27T18:50:45.332Z,3.42
2022-08-27T18:53:15.106Z,4.85
2022-08-27T18:55:43.287Z,4.93
2022-08-27T18:58:13.154Z,3.85
2022-08-27T19:00:43.746Z,3.22
2022-08-27T19:03:13.997Z,6.45
2022-08-27T19:05:43.118Z,9.57
2022-08-27T19:08:11.553Z,2.60
2022-08-27T19:10:39.911Z,3.40
2022-08-27T19:13:07.984Z,3.83
2022-08-27T19:15:37.636Z,6.55
2022-08-27T19:18:06.041Z,4.85
2022-08-27T19:20:34.112Z,3.05
2022-08-27T19:23:02.262Z,7.47
2022-08-27T19:25:30.708Z,4.07
2022-08-27T19:27:59.073Z,5.93
2022-08-27T19:30:27.166Z,7.47
2022-08-27T19:32:57.063Z,3.92
2022-08-27T19:35:25.887Z,5.88
2022-08-27T19:37:54.346Z,3.50
2022-08-27T19:40:23.070Z,5.38
2022-08-27T19:42:52.606Z,4.25
2022-08-27T19:45:23.764Z,7.10
2022-08-27T19:47:53.324Z,5.32
2022-08-27T19:50:24.249Z,7.18
2022-08-27T19:52:53.005Z,12.77
2022-08-27T19:55:21.485Z,17.63
2022-08-27T19:57:49.549Z,8.77
2022-08-27T20:00:20.960Z,4.57
2022-08-27T20:02:50.797Z,5.88
2022-08-27T20:05:20.727Z,7.35
2022-08-27T20:07:51.278Z,13.77
2022-08-27T20:10:19.601Z,15.07
2022-08-27T20:12:49.852Z,24.88
2022-08-27T20:15:19.421Z,30.95
2022-08-27T20:17:47.829Z,28.95
2022-08-27T20:20:22.754Z,32.33
2022-08-27T20:22:52.715Z,29.15
2022-08-27T20:25:21.530Z,23.17
2022-08-27T20:27:50.154Z,12.90
2022-08-27T20:30:19.920Z,8.35
2022-08-27T20:32:48.042Z,11.20
2022-08-27T20:35:16.990Z,6.97
2022-08-27T20:37:46.175Z,7.47
2022-08-27T20:40:18.884Z,10.10
2022-08-27T20:42:47.046Z,5.25
2022-08-27T20:45:16.542Z,6.65
2022-08-27T20:47:46.862Z,6.70
2022-08-27T20:50:16.532Z,4.03
2022-08-27T20:52:45.584Z,5.40
2022-08-27T20:55:17.396Z,3.92
2022-08-27T20:58:04.363Z,6.95
2022-08-27T21:00:36.532Z,4.72
2022-08-27T21:03:04.826Z,4.60
2022-08-27T21:05:34.471Z,4.53
2022-08-27T21:08:02.846Z,6.70
2022-08-27T21:10:32.476Z,7.88
2022-08-27T21:13:04.545Z,9.45
2022-08-27T21:15:33.446Z,4.82
2022-08-27T21:18:01.600Z,4.53
2022-08-27T21:20:29.746Z,5.10
2022-08-27T21:22:57.984Z,4.88
2022-08-27T21:25:26.900Z,6.72
2022-08-27T21:27:57.925Z,6.82
2022-08-27T21:30:26.534Z,6.13
2022-08-27T21:32:55.799Z,5.43
2022-08-27T21:35:26.457Z,5.25
2022-08-27T21:37:55.579Z,8.18
2022-08-27T21:40:25.206Z,7.10
2022-08-27T21:42:54.406Z,7.57
2022-08-27T21:45:24.258Z,5.30
2022-08-27T21:47:52.600Z,5.82
2022-08-27T21:50:21.493Z,12.43
2022-08-27T21:52:50.083Z,5.47
2022-08-27T21:55:18.869Z,6.22
2022-08-27T21:57:47.175Z,4.57
2022-08-27T22:00:41.161Z,4.85
2022-08-27T22:03:13.335Z,5.35
2022-08-27T22:05:43.144Z,5.43
2022-08-27T22:08:12.685Z,5.90
2022-08-27T22:10:42.722Z,6.15
2022-08-27T22:13:11.207Z,5.32
2022-08-27T22:15:41.193Z,5.57
2022-08-27T22:18:10.341Z,5.90
2022-08-27T22:20:38.744Z,4.15
2022-08-27T22:23:08.441Z,5.57
2022-08-27T22:25:36.721Z,4.70
2022-08-27T22:28:05.982Z,4.35
2022-08-27T22:30:34.574Z,5.50
2022-08-27T22:33:04.128Z,4.95
2022-08-27T22:35:32.352Z,4.47
2022-08-27T22:38:00.928Z,7.57
2022-08-27T22:40:31.905Z,5.25
2022-08-27T22:43:00.743Z,6.50
2022-08-27T22:45:29.399Z,4.85
2022-08-27T22:47:57.564Z,7.05
2022-08-27T22:50:27.007Z,6.15
2022-08-27T22:52:55.286Z,7.90
2022-08-27T22:55:25.225Z,4.90
2022-08-27T22:57:55.129Z,5.65
2022-08-27T23:00:26.133Z,9.68
2022-08-27T23:02:54.663Z,5.22
2022-08-27T23:05:23.435Z,4.68
2022-08-27T23:07:53.235Z,3.92
2022-08-27T23:10:24.058Z,5.97
2022-08-27T23:12:53.680Z,5.93
2022-08-27T23:15:23.884Z,6.68
2022-08-27T23:17:51.952Z,4.85
2022-08-27T23:20:22.034Z,3.95
2022-08-27T23:22:52.681Z,5.57
2022-08-27T23:25:40.618Z,5.65
2022-08-27T23:28:14.764Z,5.30
2022-08-27T23:30:43.984Z,4.95
2022-08-27T23:33:13.096Z,3.92
2022-08-27T23:35:44.570Z,4.13
2022-08-27T23:38:14.283Z,4.65
2022-08-27T23:40:42.506Z,7.35
2022-08-27T23:43:10.729Z,4.40
2022-08-27T23:45:40.706Z,5.07
2022-08-27T23:48:09.309Z,4.78
2022-08-27T23:50:37.844Z,5.53
2022-08-27T23:53:07.491Z,7.65
2022-08-27T23:55:38.465Z,4.82
2022-08-27T23:58:07.727Z,3.92
